Terminal Aerodrome Forecast
Issued by NWS

Home | Current Version | Previous Version | Text Only | Print | Product List | Glossary On
Versions: 1 2 3 4 5 6 7 8 9 10 11 12 13 14 15 16 17
000
FTUS43 KMPX 041122
TAFRWF
TAF
KRWF 041122Z 0412/0512 28008KT P6SM SCT040 SCT060
     FM041400 30013G21KT P6SM VCSH SCT025 BKN050
     FM041900 31015G24KT P6SM SCT040
     FM050100 31008KT P6SM SKC
     FM050800 27005KT P6SM SKC=

USA.gov is the U.S. government's official web portal to all federal, state and local government web resources and services.